Bob Hope Airport
KBUR : now visible

Airfield :











YOU CAN JOIN US ON...

 
LOGIN :

Register | Disclaimer

   EN    FR    IT 

 









Legend :    VFR   Marginal VFR   IFR   Intensive IFR   Very Intensive IFR
Visi :
Ceiling :
>= 8 km
>= 3000ft
5 to 8 km
1000 to 3000 ft
1500m to 5 km
500 to 1000 ft
800 to 1500m
200 to 500 ft
< 800m
< 200 ft
Symbols :   Thunderstorms  Fog  Heavy snow  Heavy precipitations  Wind > 20 kt






- Airport Elevation : 778 ft
- IATA code : BUR


KBUR - Bob Hope

CURRENT METAR :
  • 202227Z 18007KT 10SM BKN022 BKN027 OVC034 18/12 A2981 RMK AO2 T01830122

EXPIRED METARs :
  • 202153Z 18007KT 120V210 10SM SCT024 OVC030 19/12 A2981 RMK AO2 SLP083 T01890122
  • 202053Z 18011KT 10SM BKN026 OVC031 19/12 A2981 RMK AO2 SLP084 T01890117 53001

TAF KBUR
Valid from the 20 at 19:00 until the 21 at 18:00 UTC


201840Z 2019/2118 13008KT P6SM OVC021
FM202000 18008KT P6SM BKN025
FM202300 20009KT P6SM BKN035
FM210300 18005KT P6SM OVC030
FM211500 VRB03KT P6SM OVC035
KZLA FIR / North America



MET'MAP, your aeronautical weather chart ! - Copyright ORBIFLY December 2007 - Disclaimer

ORBIFLY MET'MAP TEAM :

Programming & Development : Alexandra Zaïnal
Original concept : Baudouin d'Aumeries
Technical & hardware support : Manuel Goepfert
Assistance : Marc-Olivier Méhu

Contact : metmap@orbifly.com




SOURCES & CREDITS :

   NOAA       Earth
Advisory